createdAt,value
2022-10-18T00:00:42.947Z,4.90
2022-10-18T00:03:09.512Z,5.60
2022-10-18T00:05:36.021Z,4.60
2022-10-18T00:08:02.547Z,5.40
2022-10-18T00:10:30.328Z,5.20
2022-10-18T00:12:57.044Z,5.82
2022-10-18T00:15:23.481Z,5.43
2022-10-18T00:17:49.910Z,5.07
2022-10-18T00:20:16.660Z,5.13
2022-10-18T00:22:43.083Z,5.40
2022-10-18T00:25:09.858Z,5.07
2022-10-18T00:27:36.534Z,5.53
2022-10-18T00:30:03.843Z,6.22
2022-10-18T00:32:30.461Z,6.30
2022-10-18T00:34:57.149Z,6.35
2022-10-18T00:37:23.700Z,6.00
2022-10-18T00:39:50.234Z,6.05
2022-10-18T00:42:19.016Z,6.97
2022-10-18T00:44:51.262Z,6.68
2022-10-18T00:47:18.943Z,6.20
2022-10-18T00:49:53.730Z,7.57
2022-10-18T00:52:38.011Z,7.10
2022-10-18T00:55:06.199Z,7.55
2022-10-18T00:57:33.379Z,7.45
2022-10-18T00:59:59.912Z,8.13
2022-10-18T01:02:26.920Z,8.48
2022-10-18T01:04:53.371Z,8.43
2022-10-18T01:07:41.590Z,9.82
2022-10-18T01:10:32.728Z,10.00
2022-10-18T01:13:46.448Z,9.52
2022-10-18T01:16:21.971Z,11.38
2022-10-18T01:19:01.450Z,11.68
2022-10-18T01:21:49.896Z,10.15
2022-10-18T01:24:45.531Z,10.23
2022-10-18T01:27:23.992Z,10.90
2022-10-18T01:30:32.259Z,10.48
2022-10-18T01:33:05.610Z,11.27
2022-10-18T01:35:37.805Z,10.75
2022-10-18T01:38:09.334Z,10.60
2022-10-18T01:40:37.417Z,11.63
2022-10-18T01:43:04.735Z,10.82
2022-10-18T01:45:32.710Z,11.43
2022-10-18T01:48:00.683Z,10.10
2022-10-18T01:50:31.989Z,10.82
2022-10-18T01:52:58.859Z,10.93
2022-10-18T01:55:31.822Z,10.35
2022-10-18T01:58:20.832Z,9.20
2022-10-18T02:00:50.650Z,9.93
2022-10-18T02:03:27.563Z,9.82
2022-10-18T02:06:05.440Z,8.95
2022-10-18T02:08:36.694Z,11.07
2022-10-18T02:13:42.224Z,9.77
2022-10-18T02:16:17.023Z,11.43
2022-10-18T02:19:00.066Z,10.05
2022-10-18T02:21:29.141Z,11.32
2022-10-18T02:23:58.316Z,9.98
2022-10-18T02:26:24.875Z,10.73
2022-10-18T02:28:51.524Z,9.77
2022-10-18T02:31:36.390Z,10.50
2022-10-18T02:34:13.973Z,10.55
2022-10-18T02:36:47.584Z,10.55
2022-10-18T02:39:18.752Z,12.15
2022-10-18T02:41:45.172Z,12.60
2022-10-18T02:44:11.595Z,12.55
2022-10-18T02:46:39.338Z,12.68
2022-10-18T02:49:05.817Z,12.13
2022-10-18T02:51:32.659Z,12.82
2022-10-18T02:53:59.207Z,11.80
2022-10-18T02:56:25.720Z,11.20
2022-10-18T02:58:52.138Z,11.70
2022-10-18T03:01:18.573Z,11.55
2022-10-18T03:03:45.059Z,11.07
2022-10-18T03:06:11.466Z,11.80
2022-10-18T03:08:38.041Z,11.52
2022-10-18T03:11:04.534Z,11.35
2022-10-18T03:13:31.255Z,11.60
2022-10-18T03:15:57.694Z,10.65
2022-10-18T03:18:24.339Z,10.60
2022-10-18T03:20:50.756Z,11.38
2022-10-18T03:23:17.189Z,9.68
2022-10-18T03:25:45.721Z,9.57
2022-10-18T03:28:13.245Z,10.20
2022-10-18T03:30:39.685Z,9.48
2022-10-18T03:33:06.418Z,9.20
2022-10-18T03:35:32.834Z,9.82
2022-10-18T03:37:59.413Z,8.90
2022-10-18T03:40:25.880Z,9.23
2022-10-18T03:42:52.493Z,9.35
2022-10-18T03:45:18.979Z,9.18
2022-10-18T03:47:45.652Z,9.88
2022-10-18T03:50:12.271Z,8.63
2022-10-18T03:52:38.761Z,9.55
2022-10-18T03:55:05.609Z,8.70
2022-10-18T03:57:32.053Z,10.00
2022-10-18T03:59:58.464Z,9.25
2022-10-18T04:02:25.887Z,9.38
2022-10-18T04:04:52.662Z,8.38
2022-10-18T04:07:19.130Z,8.90
2022-10-18T04:09:45.806Z,9.02
2022-10-18T04:12:15.561Z,9.20
2022-10-18T04:14:42.344Z,8.98
2022-10-18T04:17:08.826Z,8.20
2022-10-18T04:19:35.241Z,8.70
2022-10-18T04:22:01.645Z,9.20
2022-10-18T04:24:28.115Z,9.73
2022-10-18T04:26:54.546Z,9.55
2022-10-18T04:29:21.027Z,9.07
2022-10-18T04:31:47.436Z,9.30
2022-10-18T04:34:13.876Z,8.18
2022-10-18T04:36:40.363Z,9.45
2022-10-18T04:39:06.804Z,9.48
2022-10-18T04:41:33.265Z,9.18
2022-10-18T04:43:59.764Z,12.07
2022-10-18T04:46:26.243Z,9.63
2022-10-18T04:48:52.690Z,9.90
2022-10-18T04:51:19.176Z,10.57
2022-10-18T04:53:45.603Z,10.90
2022-10-18T04:56:12.013Z,9.23
2022-10-18T04:58:38.420Z,9.60
2022-10-18T05:01:08.438Z,10.43
2022-10-18T05:03:34.961Z,10.60
2022-10-18T05:06:02.969Z,9.63
2022-10-18T05:08:31.580Z,10.55
2022-10-18T05:10:58.041Z,11.45
2022-10-18T05:13:24.971Z,11.52
2022-10-18T05:15:51.777Z,10.95
2022-10-18T05:18:18.406Z,11.15
2022-10-18T05:20:44.834Z,12.75
2022-10-18T05:23:11.442Z,11.73
2022-10-18T05:25:39.642Z,11.77
2022-10-18T05:28:10.973Z,11.95
2022-10-18T05:30:47.688Z,12.65
2022-10-18T05:33:14.103Z,12.00
2022-10-18T05:35:40.543Z,12.15
2022-10-18T05:38:07.137Z,12.70
2022-10-18T05:40:34.494Z,12.45
2022-10-18T05:43:00.951Z,12.43
2022-10-18T05:45:27.392Z,12.00
2022-10-18T05:47:54.259Z,11.48
2022-10-18T05:50:20.671Z,11.73
2022-10-18T05:52:47.307Z,11.45
2022-10-18T05:55:13.740Z,11.43
2022-10-18T05:57:40.406Z,11.48
2022-10-18T06:00:07.710Z,12.38
2022-10-18T06:02:34.279Z,10.55
2022-10-18T06:05:00.750Z,9.75
2022-10-18T06:07:27.168Z,10.77
2022-10-18T06:09:53.594Z,10.30
2022-10-18T06:12:20.000Z,12.02
2022-10-18T06:14:47.465Z,10.68
2022-10-18T06:17:13.911Z,9.77
2022-10-18T06:19:40.364Z,9.40
2022-10-18T06:22:06.926Z,10.38
2022-10-18T06:24:33.355Z,9.95
2022-10-18T06:26:59.806Z,10.82
2022-10-18T06:29:26.252Z,9.35
2022-10-18T06:31:52.687Z,10.30
2022-10-18T06:34:19.117Z,10.20
2022-10-18T06:36:45.523Z,10.07
2022-10-18T06:39:11.948Z,9.45
2022-10-18T06:41:38.549Z,8.73
2022-10-18T06:44:13.504Z,8.70
2022-10-18T06:46:41.062Z,8.88
2022-10-18T06:49:07.587Z,8.73
2022-10-18T06:51:33.995Z,8.73
2022-10-18T06:54:16.761Z,9.07
2022-10-18T06:56:44.268Z,9.40
2022-10-18T06:59:10.824Z,9.05
2022-10-18T07:01:37.328Z,8.63
2022-10-18T07:04:03.842Z,8.30
2022-10-18T07:06:30.327Z,9.35
2022-10-18T07:08:57.074Z,9.80
2022-10-18T07:11:25.682Z,9.20
2022-10-18T07:13:54.396Z,8.38
2022-10-18T07:16:21.164Z,8.48
2022-10-18T07:18:51.489Z,8.88
2022-10-18T07:21:20.684Z,7.97
2022-10-18T07:23:47.828Z,7.85
2022-10-18T07:26:29.240Z,7.25
2022-10-18T07:29:01.596Z,7.90
2022-10-18T07:31:29.297Z,7.68
2022-10-18T07:33:55.894Z,8.20
2022-10-18T07:36:22.567Z,7.18
2022-10-18T07:38:49.700Z,7.13
2022-10-18T07:41:16.130Z,7.30
2022-10-18T07:43:45.757Z,7.50
2022-10-18T07:46:13.396Z,6.88
2022-10-18T07:48:40.145Z,7.20
2022-10-18T07:51:07.004Z,7.57
2022-10-18T07:53:34.616Z,8.25
2022-10-18T07:56:07.268Z,9.93
2022-10-18T07:58:36.038Z,8.63
2022-10-18T08:01:07.802Z,9.50
2022-10-18T08:03:35.153Z,8.55
2022-10-18T08:06:01.873Z,9.35
2022-10-18T08:08:28.289Z,8.55
2022-10-18T08:10:54.785Z,7.38
2022-10-18T08:13:21.235Z,7.03
2022-10-18T08:15:47.842Z,7.55
2022-10-18T08:18:14.278Z,7.65
2022-10-18T08:20:45.227Z,7.38
2022-10-18T08:23:12.129Z,7.00
2022-10-18T08:25:38.593Z,6.90
2022-10-18T08:28:05.465Z,7.00
2022-10-18T08:30:31.966Z,7.43
2022-10-18T08:32:58.375Z,7.65
2022-10-18T08:35:24.774Z,7.28
2022-10-18T08:37:51.280Z,6.22
2022-10-18T08:40:17.775Z,8.15
2022-10-18T08:42:59.472Z,6.93
2022-10-18T08:45:41.923Z,7.50
2022-10-18T08:48:19.283Z,7.40
2022-10-18T08:50:46.757Z,8.45
2022-10-18T08:53:37.741Z,9.23
2022-10-18T08:56:16.300Z,9.05
2022-10-18T08:58:44.280Z,9.25
2022-10-18T09:01:42.339Z,9.02
2022-10-18T09:04:23.679Z,10.27
2022-10-18T09:07:08.110Z,9.32
2022-10-18T09:10:08.509Z,8.55
2022-10-18T09:12:55.795Z,8.80
2022-10-18T09:15:34.507Z,7.25
2022-10-18T09:18:25.171Z,7.25
2022-10-18T09:20:59.452Z,7.68
2022-10-18T09:23:46.928Z,7.93
2022-10-18T09:26:26.028Z,7.68
2022-10-18T09:29:15.725Z,8.25
2022-10-18T09:31:49.530Z,9.07
2022-10-18T09:34:52.393Z,7.88
2022-10-18T09:37:20.744Z,6.93
2022-10-18T09:39:50.268Z,8.65
2022-10-18T09:42:26.726Z,9.13
2022-10-18T09:44:58.634Z,8.63
2022-10-18T09:47:39.376Z,9.05
2022-10-18T09:50:24.805Z,8.90
2022-10-18T09:53:01.968Z,8.68
2022-10-18T09:55:35.800Z,9.05
2022-10-18T09:58:05.535Z,8.93
2022-10-18T10:00:43.133Z,8.63
2022-10-18T10:03:15.828Z,8.88
2022-10-18T10:05:45.597Z,8.65
2022-10-18T10:08:12.284Z,7.30
2022-10-18T10:10:45.421Z,8.77
2022-10-18T10:13:23.032Z,8.80
2022-10-18T10:16:03.393Z,7.65
2022-10-18T10:18:32.646Z,7.63
2022-10-18T10:21:02.477Z,8.80
2022-10-18T10:23:49.652Z,8.07
2022-10-18T10:26:30.548Z,8.60
2022-10-18T10:28:57.171Z,7.68
2022-10-18T10:31:29.288Z,7.68
2022-10-18T10:34:18.969Z,8.10
2022-10-18T10:36:51.294Z,7.85
2022-10-18T10:39:20.074Z,7.78
2022-10-18T10:41:52.042Z,7.60
2022-10-18T10:44:20.678Z,7.03
2022-10-18T10:46:49.381Z,7.45
2022-10-18T10:49:39.031Z,7.50
2022-10-18T10:52:25.887Z,6.38
2022-10-18T10:55:05.440Z,6.65
2022-10-18T10:57:38.410Z,6.88
2022-10-18T11:00:06.010Z,7.43
2022-10-18T11:02:35.543Z,8.13
2022-10-18T11:05:25.432Z,7.72
2022-10-18T11:07:58.622Z,6.72
2022-10-18T11:10:29.334Z,7.35
2022-10-18T11:13:17.829Z,6.75
2022-10-18T11:15:52.945Z,6.85
2022-10-18T11:18:32.464Z,7.78
2022-10-18T11:21:17.868Z,7.75
2022-10-18T11:23:45.268Z,8.45
2022-10-18T11:26:30.226Z,9.07
2022-10-18T11:29:20.481Z,9.00
2022-10-18T11:32:10.487Z,7.88
2022-10-18T11:37:39.212Z,8.40
2022-10-18T11:40:28.145Z,7.05
2022-10-18T11:43:00.620Z,7.22
2022-10-18T11:46:11.855Z,7.72
2022-10-18T11:48:53.483Z,7.43
2022-10-18T11:52:03.617Z,7.18
2022-10-18T11:57:36.159Z,6.75
2022-10-18T12:00:21.568Z,6.85
2022-10-18T12:03:01.971Z,6.30
2022-10-18T12:05:29.895Z,8.00
2022-10-18T12:08:07.004Z,7.75
2022-10-18T12:10:44.339Z,6.78
2022-10-18T12:13:29.389Z,7.15
2022-10-18T12:15:56.319Z,7.65
2022-10-18T12:18:26.149Z,8.13
2022-10-18T12:20:56.996Z,7.20
2022-10-18T12:23:49.600Z,7.15
2022-10-18T12:26:17.302Z,7.68
2022-10-18T12:28:59.249Z,7.25
2022-10-18T12:31:43.011Z,7.72
2022-10-18T12:34:27.403Z,7.63
2022-10-18T12:37:16.802Z,8.43
2022-10-18T12:40:21.670Z,7.68
2022-10-18T12:42:47.421Z,8.50
2022-10-18T12:45:14.005Z,6.95
2022-10-18T12:47:40.764Z,6.22
2022-10-18T12:50:26.680Z,7.05
2022-10-18T12:53:09.773Z,7.00
2022-10-18T12:55:40.439Z,7.28
2022-10-18T12:58:25.890Z,7.10
2022-10-18T13:00:54.988Z,7.15
2022-10-18T13:03:27.124Z,7.18
2022-10-18T13:05:54.704Z,7.18
2022-10-18T13:08:28.057Z,6.97
2022-10-18T13:11:09.947Z,6.50
2022-10-18T13:13:57.840Z,7.63
2022-10-18T13:16:36.510Z,7.88
2022-10-18T13:19:29.941Z,7.78
2022-10-18T13:22:24.557Z,8.20
2022-10-18T13:25:19.726Z,8.30
2022-10-18T13:28:25.543Z,8.00
2022-10-18T13:30:57.356Z,8.13
2022-10-18T13:33:34.893Z,7.60
2022-10-18T13:36:21.637Z,7.40
2022-10-18T13:38:55.708Z,7.93
2022-10-18T13:41:41.994Z,8.43
2022-10-18T13:44:34.376Z,7.13
2022-10-18T13:47:00.751Z,7.03
2022-10-18T13:49:57.208Z,7.47
2022-10-18T13:52:42.544Z,7.45
2022-10-18T13:55:28.958Z,7.47
2022-10-18T13:57:55.314Z,8.10
2022-10-18T14:00:37.409Z,8.90
2022-10-18T14:03:18.818Z,8.05
2022-10-18T14:06:19.023Z,7.95
2022-10-18T14:08:52.737Z,8.43
2022-10-18T14:11:32.236Z,9.07
2022-10-18T14:14:08.531Z,8.80
2022-10-18T14:16:48.961Z,8.93
2022-10-18T14:19:54.392Z,9.65
2022-10-18T14:22:34.689Z,9.30
2022-10-18T14:25:01.533Z,9.05
2022-10-18T14:27:30.009Z,8.85
2022-10-18T14:30:09.885Z,9.20
2022-10-18T14:32:36.517Z,9.18
2022-10-18T14:35:31.061Z,9.48
2022-10-18T14:37:52.816Z,8.80
2022-10-18T14:40:30.063Z,9.20
2022-10-18T14:45:24.042Z,8.82
2022-10-18T14:47:50.463Z,7.65
2022-10-18T14:50:30.602Z,8.73
2022-10-18T14:52:57.414Z,9.18
2022-10-18T14:55:25.988Z,9.07
2022-10-18T14:57:52.601Z,9.88
2022-10-18T15:00:26.080Z,10.20
2022-10-18T15:02:52.919Z,9.43
2022-10-18T15:05:22.889Z,9.45
2022-10-18T15:07:51.362Z,8.40
2022-10-18T15:10:32.858Z,8.63
2022-10-18T15:13:09.625Z,8.27
2022-10-18T15:15:37.307Z,8.32
2022-10-18T15:18:05.260Z,8.45
2022-10-18T15:20:35.151Z,8.65
2022-10-18T15:23:24.938Z,7.78
2022-10-18T15:25:53.350Z,10.10
2022-10-18T15:28:30.425Z,8.63
2022-10-18T15:31:02.262Z,9.35
2022-10-18T15:33:34.365Z,9.05
2022-10-18T15:36:12.300Z,8.05
2022-10-18T15:38:38.918Z,9.00
2022-10-18T15:41:38.525Z,9.55
2022-10-18T15:44:26.058Z,8.95
2022-10-18T15:47:21.119Z,9.68
2022-10-18T15:49:54.609Z,9.52
2022-10-18T15:52:37.478Z,8.48
2022-10-18T15:55:30.015Z,8.40
2022-10-18T15:58:11.091Z,7.95
2022-10-18T16:00:37.573Z,10.00
2022-10-18T16:03:04.465Z,8.45
2022-10-18T16:05:30.874Z,8.63
2022-10-18T16:07:57.681Z,8.98
2022-10-18T16:10:24.112Z,9.25
2022-10-18T16:12:50.597Z,9.23
2022-10-18T16:15:17.321Z,7.90
2022-10-18T16:17:43.780Z,7.45
2022-10-18T16:20:21.143Z,8.05
2022-10-18T16:25:14.046Z,6.53
2022-10-18T16:27:40.867Z,8.10
2022-10-18T16:30:17.669Z,8.82
2022-10-18T16:32:44.119Z,8.75
2022-10-18T16:35:12.410Z,8.98
2022-10-18T16:37:39.663Z,7.88
2022-10-18T16:40:21.242Z,8.02
2022-10-18T16:42:47.725Z,9.07
2022-10-18T16:45:14.189Z,8.68
2022-10-18T16:47:40.753Z,10.50
2022-10-18T16:50:08.635Z,6.10
2022-10-18T16:52:35.231Z,8.88
2022-10-18T16:55:02.056Z,7.80
2022-10-18T16:57:28.529Z,9.05
2022-10-18T16:59:54.938Z,8.38
2022-10-18T17:02:21.376Z,10.60
2022-10-18T17:04:48.060Z,8.63
2022-10-18T17:07:25.168Z,10.02
2022-10-18T17:09:51.738Z,8.93
2022-10-18T17:12:18.148Z,9.90
2022-10-18T17:14:44.675Z,10.57
2022-10-18T17:17:12.108Z,8.80
2022-10-18T17:19:38.632Z,8.38
2022-10-18T17:22:05.208Z,8.73
2022-10-18T17:24:31.709Z,9.80
2022-10-18T17:26:58.112Z,8.52
2022-10-18T17:29:24.588Z,8.73
2022-10-18T17:31:51.741Z,8.75
2022-10-18T17:34:21.182Z,8.68
2022-10-18T17:36:48.216Z,9.63
2022-10-18T17:39:14.678Z,7.43
2022-10-18T17:41:41.164Z,8.27
2022-10-18T17:44:07.577Z,8.43
2022-10-18T17:46:34.078Z,9.10
2022-10-18T17:49:00.482Z,8.95
2022-10-18T17:51:27.045Z,8.00
2022-10-18T17:53:54.005Z,9.15
2022-10-18T17:56:20.415Z,7.95
2022-10-18T17:58:50.558Z,9.25
2022-10-18T18:01:19.933Z,7.95
2022-10-18T18:03:49.709Z,9.30
2022-10-18T18:06:24.065Z,7.85
2022-10-18T18:08:50.570Z,9.40
2022-10-18T18:11:17.858Z,9.50
2022-10-18T18:13:44.317Z,9.82
2022-10-18T18:16:16.807Z,9.85
2022-10-18T18:18:43.968Z,10.73
2022-10-18T18:21:11.103Z,10.25
2022-10-18T18:23:37.502Z,10.48
2022-10-18T18:26:03.939Z,11.60
2022-10-18T18:28:30.403Z,12.38
2022-10-18T18:30:56.826Z,12.73
2022-10-18T18:33:23.237Z,13.18
2022-10-18T18:35:58.226Z,15.90
2022-10-18T18:38:27.840Z,14.98
2022-10-18T18:41:17.973Z,13.73
2022-10-18T18:46:13.557Z,15.32
2022-10-18T18:48:42.819Z,13.13
2022-10-18T18:51:13.193Z,13.27
2022-10-18T18:53:41.692Z,14.68
2022-10-18T18:56:12.130Z,13.25
2022-10-18T18:58:39.324Z,14.07
2022-10-18T19:01:16.717Z,14.60
2022-10-18T19:03:44.130Z,15.95
2022-10-18T19:06:14.303Z,14.05
2022-10-18T19:08:40.774Z,14.13
2022-10-18T19:11:09.203Z,16.00
2022-10-18T19:13:36.141Z,14.70
2022-10-18T19:16:31.852Z,15.95
2022-10-18T19:19:16.434Z,15.32
2022-10-18T19:21:45.505Z,15.45
2022-10-18T19:24:12.005Z,15.32
2022-10-18T19:26:48.452Z,14.88
2022-10-18T19:29:18.057Z,13.73
2022-10-18T19:31:45.515Z,14.65
2022-10-18T19:34:14.177Z,15.63
2022-10-18T19:36:42.254Z,15.73
2022-10-18T19:39:13.545Z,15.38
2022-10-18T19:41:40.064Z,15.93
2022-10-18T19:44:07.699Z,14.07
2022-10-18T19:46:35.394Z,13.32
2022-10-18T19:49:01.792Z,13.23
2022-10-18T19:51:29.380Z,11.13
2022-10-18T19:53:56.472Z,12.30
2022-10-18T19:56:24.160Z,14.13
2022-10-18T19:58:51.250Z,13.02
2022-10-18T20:01:18.695Z,13.00
2022-10-18T20:03:45.998Z,12.90
2022-10-18T20:06:12.423Z,13.60
2022-10-18T20:08:39.245Z,12.73
2022-10-18T20:11:08.973Z,13.40
2022-10-18T20:13:37.098Z,12.15
2022-10-18T20:16:05.379Z,13.18
2022-10-18T20:18:31.780Z,13.13
2022-10-18T20:20:58.367Z,12.02
2022-10-18T20:23:24.891Z,12.00
2022-10-18T20:26:06.306Z,12.45
2022-10-18T20:28:33.513Z,11.82
2022-10-18T20:31:17.761Z,12.52
2022-10-18T20:33:45.868Z,11.48
2022-10-18T20:36:14.583Z,11.95
2022-10-18T20:38:43.513Z,10.93
2022-10-18T20:41:22.505Z,12.43
2022-10-18T20:43:58.088Z,12.93
2022-10-18T20:46:25.233Z,13.75
2022-10-18T20:48:52.220Z,11.50
2022-10-18T20:51:21.580Z,13.32
2022-10-18T20:53:48.269Z,12.82
2022-10-18T20:56:20.286Z,12.82
2022-10-18T20:58:48.303Z,12.77
2022-10-18T21:01:26.482Z,13.38
2022-10-18T21:03:54.668Z,12.68
2022-10-18T21:06:43.266Z,13.40
2022-10-18T21:09:15.507Z,13.52
2022-10-18T21:11:45.591Z,12.90
2022-10-18T21:14:14.325Z,11.50
2022-10-18T21:16:41.130Z,11.57
2022-10-18T21:19:15.946Z,12.32
2022-10-18T21:21:44.378Z,10.90
2022-10-18T21:24:11.657Z,10.90
2022-10-18T21:26:38.371Z,10.32
2022-10-18T21:29:06.617Z,10.93
2022-10-18T21:31:39.139Z,11.40
2022-10-18T21:34:08.135Z,9.23
2022-10-18T21:36:36.575Z,9.80
2022-10-18T21:39:04.781Z,9.52
2022-10-18T21:41:31.704Z,9.07
2022-10-18T21:43:58.138Z,9.18
2022-10-18T21:46:27.102Z,9.48
2022-10-18T21:48:55.782Z,9.07
2022-10-18T21:51:24.109Z,9.50
2022-10-18T21:53:52.398Z,9.30
2022-10-18T21:56:21.389Z,8.48
2022-10-18T21:58:48.172Z,8.77
2022-10-18T22:01:29.047Z,8.35
2022-10-18T22:03:56.850Z,7.97
2022-10-18T22:06:24.261Z,9.18
2022-10-18T22:08:53.153Z,8.85
2022-10-18T22:11:22.597Z,9.15
2022-10-18T22:13:49.207Z,7.30
2022-10-18T22:16:16.709Z,8.80
2022-10-18T22:18:44.738Z,8.43
2022-10-18T22:21:13.564Z,8.00
2022-10-18T22:23:43.677Z,7.47
2022-10-18T22:26:24.870Z,6.43
2022-10-18T22:28:57.163Z,6.93
2022-10-18T22:31:26.306Z,6.65
2022-10-18T22:33:55.127Z,6.00
2022-10-18T22:36:21.992Z,6.22
2022-10-18T22:38:48.535Z,6.93
2022-10-18T22:41:14.942Z,7.00
2022-10-18T22:43:41.680Z,6.60
2022-10-18T22:46:11.181Z,6.35
2022-10-18T22:48:38.010Z,6.60
2022-10-18T22:51:05.736Z,6.07
2022-10-18T22:53:32.782Z,5.18
2022-10-18T22:55:59.216Z,6.50
2022-10-18T22:58:26.808Z,4.78
2022-10-18T23:01:00.973Z,5.88
2022-10-18T23:03:27.673Z,4.90
2022-10-18T23:05:54.282Z,4.78
2022-10-18T23:08:20.698Z,4.03
2022-10-18T23:10:47.138Z,4.25
2022-10-18T23:13:15.375Z,4.88
2022-10-18T23:15:41.956Z,5.10
2022-10-18T23:18:08.638Z,3.97
2022-10-18T23:20:35.155Z,4.80
2022-10-18T23:23:01.600Z,5.07
2022-10-18T23:25:28.355Z,4.95
2022-10-18T23:27:55.028Z,5.13
2022-10-18T23:30:21.435Z,4.60
2022-10-18T23:32:48.087Z,4.93
2022-10-18T23:35:14.518Z,4.80
2022-10-18T23:37:40.922Z,4.88
2022-10-18T23:40:08.115Z,4.63
2022-10-18T23:42:34.557Z,4.60
2022-10-18T23:45:00.964Z,5.25
2022-10-18T23:47:27.429Z,4.28
2022-10-18T23:49:55.499Z,4.72
2022-10-18T23:52:21.930Z,4.40
2022-10-18T23:54:48.447Z,4.63
2022-10-18T23:57:14.872Z,4.50
2022-10-18T23:59:41.649Z,4.55
